Time;durP1;ratioP1;P1;durP2;ratioP2;P2;SDS_P1;SDS_P2;PMS_P1;PMS_P2;Temp;Humidity;BMP_temperature;BMP_pressure;BME280_temperature;BME280_humidity;BME280_pressure;Samples;Min_cycle;Max_cycle;Signal;HPM_P1;HPM_P2
2021/08/03 00:02:09;;;;;;;6.78;4.78;;;;;;;13.05;81.17;101622.78;5018499;28;20164;-50
2021/08/03 00:04:42;;;;;;;9.98;4.80;;;;;;;13.06;81.39;101621.00;5012729;28;20056;-48
2021/08/03 00:07:11;;;;;;;9.15;5.32;;;;;;;13.06;81.24;101619.28;5023449;28;20379;-47
2021/08/03 00:09:39;;;;;;;9.00;4.63;;;;;;;13.05;81.43;101614.94;5013677;28;20044;-49
2021/08/03 00:12:10;;;;;;;7.75;4.47;;;;;;;13.06;80.80;101611.44;5016725;28;20022;-49
2021/08/03 00:14:41;;;;;;;9.02;4.50;;;;;;;13.03;80.58;101611.41;5015112;28;20033;-47
2021/08/03 00:17:12;;;;;;;8.13;4.05;;;;;;;13.05;80.75;101611.44;5015994;28;20613;-48
2021/08/03 00:19:37;;;;;;;8.13;4.80;;;;;;;13.00;80.95;101612.22;5012668;28;20477;-49
2021/08/03 00:22:03;;;;;;;7.68;4.00;;;;;;;12.99;80.61;101605.22;5015806;28;20057;-47
2021/08/03 00:24:28;;;;;;;9.15;4.32;;;;;;;12.95;80.82;101598.19;5016813;28;20125;-47
2021/08/03 00:26:54;;;;;;;7.30;4.45;;;;;;;12.93;81.38;101599.88;5014107;28;20196;-50
2021/08/03 00:29:19;;;;;;;8.35;4.80;;;;;;;12.92;81.20;101598.16;5015867;28;20033;-52
2021/08/03 00:31:45;;;;;;;6.95;4.75;;;;;;;12.90;81.00;101599.84;5029414;28;20030;-51
2021/08/03 00:34:11;;;;;;;9.82;4.65;;;;;;;12.87;81.17;101596.28;5014779;28;20482;-50
2021/08/03 00:36:36;;;;;;;11.23;5.13;;;;;;;12.85;81.25;101598.03;5011284;28;20033;-52
2021/08/03 00:39:04;;;;;;;8.07;4.60;;;;;;;12.80;80.98;101594.47;5015456;28;20025;-51
2021/08/03 00:41:33;;;;;;;10.57;4.50;;;;;;;12.75;81.10;101590.88;5016895;28;20586;-46
2021/08/03 00:43:58;;;;;;;9.55;4.82;;;;;;;12.70;81.29;101592.53;5013983;28;20033;-48
2021/08/03 00:46:24;;;;;;;10.75;5.05;;;;;;;12.66;81.18;101595.97;5015781;28;20060;-47
2021/08/03 00:48:49;;;;;;;8.32;4.75;;;;;;;12.52;81.90;101595.72;5012246;28;20033;-50
2021/08/03 00:51:15;;;;;;;7.50;4.70;;;;;;;12.43;81.80;101595.59;5017567;28;20092;-49
2021/08/03 00:53:43;;;;;;;11.27;5.68;;;;;;;12.37;81.89;101592.88;5012726;28;20025;-48
2021/08/03 00:56:09;;;;;;;9.13;4.97;;;;;;;12.32;82.02;101594.53;5016538;28;20032;-48
2021/08/03 00:58:35;;;;;;;9.00;4.82;;;;;;;12.29;82.12;101595.34;5011930;28;20045;-49
2021/08/03 01:01:00;;;;;;;8.75;4.38;;;;;;;12.28;82.18;101592.69;5016209;28;20025;-48
2021/08/03 01:03:26;;;;;;;8.15;4.43;;;;;;;12.26;82.08;101595.28;5010322;28;20087;-49
2021/08/03 01:06:24;;;;;;;9.40;4.25;;;;;;;12.37;80.90;101588.53;5016890;28;20445;-53
2021/08/03 01:08:57;;;;;;;10.40;4.68;;;;;;;12.37;80.98;101588.53;5017039;28;20022;-49
2021/08/03 01:11:31;;;;;;;10.25;4.57;;;;;;;12.35;80.98;101589.34;5014963;28;20847;-48
2021/08/03 01:14:10;;;;;;;9.10;4.82;;;;;;;12.33;81.46;101586.69;5029034;28;20103;-47
2021/08/03 01:16:54;;;;;;;7.65;4.43;;;;;;;12.34;81.47;101577.13;5025753;28;20063;-47
2021/08/03 01:19:35;;;;;;;9.30;4.45;;;;;;;12.34;81.62;101583.22;5030058;28;20160;-50
2021/08/03 01:22:11;;;;;;;11.30;5.43;;;;;;;12.34;82.13;101575.38;5016374;28;20072;-46
2021/08/03 01:24:39;;;;;;;9.15;4.47;;;;;;;12.37;82.04;101575.47;5033219;28;20079;-49
2021/08/03 01:27:16;;;;;;;11.13;5.45;;;;;;;12.39;82.41;101581.56;5017385;28;20120;-48
2021/08/03 01:29:43;;;;;;;13.23;5.90;;;;;;;12.43;82.35;101574.69;5013444;28;20072;-48
2021/08/03 01:32:09;;;;;;;13.18;5.55;;;;;;;12.46;82.51;101572.09;5016420;28;20029;-47
2021/08/03 01:34:43;;;;;;;11.52;5.97;;;;;;;12.49;82.54;101567.81;5013797;28;20080;-50
2021/08/03 01:37:08;;;;;;;12.70;6.80;;;;;;;12.51;82.52;101573.03;5032699;28;20322;-50
2021/08/03 01:39:37;;;;;;;14.63;6.68;;;;;;;12.50;82.54;101573.94;5014197;28;20029;-50
2021/08/03 01:42:04;;;;;;;13.73;7.07;;;;;;;12.49;82.50;101561.69;5015254;28;20018;-48
2021/08/03 01:44:32;;;;;;;11.70;6.57;;;;;;;12.47;82.46;101568.63;5012698;28;20490;-47
2021/08/03 01:46:58;;;;;;;14.48;6.63;;;;;;;12.46;82.57;101569.47;5014280;28;20690;-49
2021/08/03 01:49:23;;;;;;;12.75;6.70;;;;;;;12.48;82.41;101575.63;5015311;28;20449;-51
2021/08/03 01:51:49;;;;;;;13.73;6.32;;;;;;;12.47;82.17;101572.13;5012359;28;20026;-48
2021/08/03 01:54:16;;;;;;;11.68;6.55;;;;;;;12.47;81.76;101574.75;5014096;28;20397;-48
2021/08/03 01:56:43;;;;;;;13.35;6.68;;;;;;;12.45;81.75;101573.81;5015168;28;20037;-49
2021/08/03 01:59:08;;;;;;;15.50;7.63;;;;;;;12.44;82.25;101576.44;5010436;28;20038;-49
2021/08/03 02:01:35;;;;;;;13.80;6.72;;;;;;;12.46;81.89;101578.22;5013876;28;20099;-50
2021/08/03 02:04:01;;;;;;;11.80;6.80;;;;;;;12.51;81.93;101583.50;5013587;28;20103;-49
2021/08/03 02:06:27;;;;;;;12.90;7.22;;;;;;;12.58;82.17;101580.16;5014697;28;20687;-48
2021/08/03 02:08:58;;;;;;;15.88;7.25;;;;;;;12.64;81.91;101577.63;5013600;28;20049;-53
2021/08/03 02:11:24;;;;;;;11.85;6.22;;;;;;;12.74;81.77;101576.94;5017297;28;20442;-53
2021/08/03 02:13:49;;;;;;;11.63;6.90;;;;;;;12.80;81.31;101581.38;4996581;28;20478;-47
2021/08/03 02:16:15;;;;;;;15.75;7.40;;;;;;;12.83;81.37;101579.69;5011084;28;20035;-52
2021/08/03 02:18:40;;;;;;;13.70;6.68;;;;;;;12.89;81.34;101577.16;5015097;28;20512;-48
2021/08/03 02:21:06;;;;;;;10.40;5.93;;;;;;;12.96;80.98;101578.13;5015001;28;20041;-50
2021/08/03 02:23:31;;;;;;;13.90;6.65;;;;;;;12.97;81.11;101575.53;5014480;28;20128;-49
2021/08/03 02:25:57;;;;;;;13.40;6.43;;;;;;;12.98;81.26;101566.84;5011119;28;20560;-49
2021/08/03 02:28:22;;;;;;;10.77;6.78;;;;;;;12.98;81.28;101569.47;5014988;28;20041;-48
2021/08/03 02:30:50;;;;;;;11.45;6.85;;;;;;;12.94;81.29;101570.25;5014639;28;20087;-50
2021/08/03 02:33:18;;;;;;;11.68;5.63;;;;;;;12.89;80.72;101566.69;5028940;28;20038;-48
2021/08/03 02:35:55;;;;;;;10.93;6.10;;;;;;;12.83;81.11;101570.94;5009875;28;20454;-50
2021/08/03 02:38:23;;;;;;;14.52;6.80;;;;;;;12.77;81.10;101573.47;5008522;28;20035;-50
2021/08/03 02:40:48;;;;;;;12.82;6.03;;;;;;;12.71;80.94;101571.63;5015080;28;20092;-48
2021/08/03 02:43:14;;;;;;;11.10;6.78;;;;;;;12.66;80.95;101572.44;5014550;28;20424;-48
2021/08/03 02:45:40;;;;;;;10.43;5.40;;;;;;;12.60;81.37;101568.88;5013384;28;20033;-51
2021/08/03 02:48:11;;;;;;;10.07;5.70;;;;;;;12.56;81.48;101567.03;5013084;28;20033;-49
2021/08/03 02:50:38;;;;;;;13.65;6.80;;;;;;;12.51;81.16;101568.69;5005042;28;20041;-48
2021/08/03 02:53:13;;;;;;;10.90;5.55;;;;;;;12.47;81.10;101571.25;5013631;28;20030;-49
2021/08/03 02:55:43;;;;;;;12.93;6.75;;;;;;;12.40;81.42;101578.09;5010491;28;20052;-49
2021/08/03 02:58:14;;;;;;;13.07;6.25;;;;;;;12.35;81.63;101569.31;5008107;28;20022;-49
2021/08/03 03:00:39;;;;;;;11.68;6.47;;;;;;;12.33;81.24;101576.22;5014904;28;20037;-49
2021/08/03 03:03:08;;;;;;;10.93;5.68;;;;;;;12.30;81.12;101570.97;5010967;28;20026;-48
2021/08/03 03:05:35;;;;;;;13.13;6.68;;;;;;;12.24;81.53;101569.97;5007887;28;20083;-47
2021/08/03 03:08:08;;;;;;;12.00;6.05;;;;;;;12.17;81.82;101574.22;5021392;28;20035;-48
2021/08/03 03:10:38;;;;;;;12.77;6.00;;;;;;;12.12;82.00;101574.13;5030769;28;20033;-47
2021/08/03 03:13:13;;;;;;;12.75;6.30;;;;;;;12.06;81.73;101566.19;5014420;28;20445;-52
2021/08/03 03:15:41;;;;;;;11.98;6.40;;;;;;;12.03;82.04;101567.84;5015383;28;20029;-50
2021/08/03 03:18:07;;;;;;;11.10;6.35;;;;;;;11.98;82.38;101559.94;5016169;28;20075;-48
2021/08/03 03:20:33;;;;;;;8.68;5.60;;;;;;;11.96;82.00;101564.22;5011638;28;20037;-48
2021/08/03 03:22:59;;;;;;;13.75;6.88;;;;;;;11.94;82.25;101560.72;5020108;28;20148;-50
2021/08/03 03:25:26;;;;;;;12.57;6.65;;;;;;;11.90;82.33;101558.00;5017873;28;20021;-47
2021/08/03 03:27:54;;;;;;;14.68;7.38;;;;;;;11.87;82.53;101565.81;5016417;28;20033;-47
2021/08/03 03:30:20;;;;;;;10.05;5.93;;;;;;;11.84;82.14;101566.63;5019017;28;20155;-48
2021/08/03 03:32:46;;;;;;;14.63;7.43;;;;;;;11.77;82.44;101557.78;5014059;28;20029;-47
2021/08/03 03:35:12;;;;;;;14.48;7.45;;;;;;;11.76;82.58;101561.28;5016031;28;20483;-48
2021/08/03 03:37:38;;;;;;;11.73;6.53;;;;;;;11.74;82.96;101557.72;5016897;28;20013;-49
2021/08/03 03:40:04;;;;;;;11.88;6.60;;;;;;;11.75;82.70;101558.63;5013771;28;20782;-48
2021/08/03 03:42:32;;;;;;;14.30;7.75;;;;;;;11.74;82.68;101549.00;5017445;28;20029;-48
2021/08/03 03:44:59;;;;;;;14.60;7.38;;;;;;;11.78;82.52;101554.31;5013742;28;20265;-48
2021/08/03 03:47:29;;;;;;;15.23;8.05;;;;;;;11.74;82.42;101557.72;5030281;28;20081;-48
2021/08/03 03:50:00;;;;;;;16.58;7.53;;;;;;;11.72;82.61;101561.13;5012694;28;20101;-48
2021/08/03 03:52:26;;;;;;;19.20;8.65;;;;;;;11.70;82.80;101558.50;5013303;28;20030;-48
2021/08/03 03:54:52;;;;;;;14.52;7.57;;;;;;;11.71;82.50;101568.06;4998614;28;20025;-48
2021/08/03 03:57:20;;;;;;;17.27;7.88;;;;;;;11.73;82.68;101560.28;5016279;28;20035;-49
2021/08/03 03:59:46;;;;;;;18.45;8.45;;;;;;;11.73;82.40;101555.97;5016172;28;20032;-48
2021/08/03 04:02:13;;;;;;;18.15;9.10;;;;;;;11.71;82.84;101552.41;5016063;28;20045;-48
2021/08/03 04:04:39;;;;;;;21.75;9.98;;;;;;;11.72;83.02;101548.94;5018591;28;20040;-47
2021/08/03 04:07:05;;;;;;;19.40;9.70;;;;;;;11.73;83.01;101548.13;4994209;28;20025;-50
2021/08/03 04:09:30;;;;;;;20.67;10.55;;;;;;;11.70;83.54;101552.41;5014466;28;20033;-47
2021/08/03 04:11:55;;;;;;;16.55;8.82;;;;;;;11.70;83.39;101550.66;5018693;28;20020;-48
2021/08/03 04:14:27;;;;;;;22.42;10.15;;;;;;;11.69;83.28;101550.63;5018458;28;20434;-51
2021/08/03 04:16:53;;;;;;;23.67;10.80;;;;;;;11.71;82.97;101556.78;5014469;28;20029;-51
2021/08/03 04:19:19;;;;;;;20.75;10.10;;;;;;;11.72;83.20;101546.34;5016286;28;20021;-50
2021/08/03 04:21:47;;;;;;;21.52;10.05;;;;;;;11.75;83.06;101550.78;5012969;28;20091;-52
2021/08/03 04:24:16;;;;;;;19.17;9.70;;;;;;;11.79;83.58;101548.25;5011546;28;20037;-46
2021/08/03 04:26:42;;;;;;;18.52;9.52;;;;;;;11.86;83.26;101554.47;5017382;28;20477;-46
2021/08/03 04:29:07;;;;;;;19.92;9.82;;;;;;;11.92;83.29;101554.59;5017273;28;20080;-47
2021/08/03 04:31:33;;;;;;;20.33;10.52;;;;;;;11.99;83.27;101556.47;5018705;28;20055;-47
2021/08/03 04:33:58;;;;;;;20.77;10.45;;;;;;;12.06;83.48;101550.50;5016568;28;20116;-49
2021/08/03 04:36:24;;;;;;;21.40;11.05;;;;;;;12.13;83.29;101554.13;5016309;28;20025;-47
2021/08/03 04:38:49;;;;;;;18.85;10.38;;;;;;;12.22;83.08;101542.91;5010763;28;20562;-49
2021/08/03 04:41:15;;;;;;;18.73;10.02;;;;;;;12.31;83.07;101545.72;5015920;28;20030;-50
2021/08/03 04:43:42;;;;;;;19.98;10.18;;;;;;;12.39;82.94;101537.13;5016389;28;20087;-46
2021/08/03 04:46:11;;;;;;;18.98;10.43;;;;;;;12.47;82.74;101540.75;5015209;28;20028;-46
2021/08/03 04:48:36;;;;;;;23.02;9.48;;;;;;;12.54;82.10;101539.13;5011595;28;20033;-46
2021/08/03 04:51:02;;;;;;;19.10;9.30;;;;;;;12.59;82.01;101535.72;5008812;28;20155;-49
2021/08/03 04:53:27;;;;;;;17.42;9.95;;;;;;;12.67;81.65;101541.06;5018492;28;20034;-52
2021/08/03 04:55:53;;;;;;;17.30;9.88;;;;;;;12.77;81.34;101531.59;5013682;28;20428;-46
2021/08/03 04:58:18;;;;;;;14.98;9.15;;;;;;;12.92;80.82;101542.31;5015908;28;20017;-47
2021/08/03 05:00:44;;;;;;;14.85;9.25;;;;;;;13.16;80.14;101528.72;5016970;28;20125;-48
2021/08/03 05:03:10;;;;;;;11.95;8.63;;;;;;;13.46;78.88;101529.09;5016892;28;20044;-53
2021/08/03 05:05:36;;;;;;;14.45;8.13;;;;;;;13.78;78.05;101532.94;5012480;28;20037;-52
2021/08/03 05:08:01;;;;;;;12.30;7.68;;;;;;;14.09;77.01;101544.63;5013103;28;20026;-48
2021/08/03 05:10:29;;;;;;;12.27;7.93;;;;;;;14.33;75.91;101532.63;5014594;28;20080;-48
2021/08/03 05:12:54;;;;;;;11.05;7.35;;;;;;;14.41;74.96;101537.09;5012425;28;20025;-49
2021/08/03 05:15:19;;;;;;;12.88;7.75;;;;;;;14.42;74.83;101540.59;5016884;28;20029;-51
2021/08/03 05:17:45;;;;;;;11.20;7.60;;;;;;;14.41;75.89;101536.19;5011907;28;20087;-48
2021/08/03 05:20:11;;;;;;;12.63;7.57;;;;;;;14.46;75.42;101535.38;5012594;28;20029;-46
2021/08/03 05:22:36;;;;;;;10.93;7.50;;;;;;;14.49;74.03;101535.41;5013177;28;20025;-49
2021/08/03 05:25:02;;;;;;;11.52;8.20;;;;;;;14.54;75.15;101533.69;5015504;28;20120;-49
2021/08/03 05:27:27;;;;;;;10.02;7.53;;;;;;;14.58;75.75;101531.97;5012431;28;20045;-48
2021/08/03 05:29:53;;;;;;;11.43;7.60;;;;;;;14.65;74.61;101531.13;5013802;28;20033;-47
2021/08/03 05:32:18;;;;;;;12.70;7.25;;;;;;;14.81;75.14;101532.16;5015942;28;20488;-46
2021/08/03 05:34:44;;;;;;;12.13;7.47;;;;;;;14.93;74.57;101519.09;5016524;28;20109;-47
2021/08/03 05:37:09;;;;;;;11.45;6.57;;;;;;;15.06;71.35;101523.56;5012104;28;20091;-47
2021/08/03 05:39:35;;;;;;;11.13;6.60;;;;;;;15.24;70.57;101521.00;5012855;28;20029;-47
2021/08/03 05:42:02;;;;;;;9.88;6.20;;;;;;;15.39;69.44;101528.06;5014182;28;20390;-48
2021/08/03 05:44:27;;;;;;;9.80;5.28;;;;;;;15.49;68.55;101518.47;5014029;28;20056;-51
2021/08/03 05:46:53;;;;;;;7.85;4.97;;;;;;;15.55;67.05;101514.16;5006999;28;20087;-51
2021/08/03 05:49:19;;;;;;;9.55;5.28;;;;;;;15.69;67.40;101516.81;5013509;28;20029;-47
2021/08/03 05:51:44;;;;;;;7.25;4.35;;;;;;;15.80;65.91;101518.59;5015222;28;20033;-46
2021/08/03 05:54:10;;;;;;;9.10;4.13;;;;;;;15.93;65.00;101522.13;5009419;28;20672;-49
2021/08/03 05:56:37;;;;;;;6.28;4.05;;;;;;;16.11;64.11;101521.25;5014747;28;20025;-48
2021/08/03 05:59:03;;;;;;;6.05;4.10;;;;;;;16.20;65.72;101524.78;5012977;28;20104;-48
2021/08/03 06:01:29;;;;;;;6.85;3.85;;;;;;;16.32;64.14;101516.03;5013384;28;20029;-48
2021/08/03 06:03:54;;;;;;;6.97;3.40;;;;;;;16.44;63.04;101518.66;5015982;28;20133;-46
2021/08/03 06:06:20;;;;;;;7.47;3.72;;;;;;;16.50;62.89;101518.66;5015886;28;20079;-47
2021/08/03 06:08:46;;;;;;;5.60;3.58;;;;;;;16.77;62.76;101527.44;5014029;28;20439;-47
2021/08/03 06:11:17;;;;;;;6.82;3.67;;;;;;;16.97;64.14;101523.88;5011412;28;20034;-47
2021/08/03 06:13:47;;;;;;;6.07;3.20;;;;;;;17.25;60.25;101515.91;5012998;28;20045;-46
2021/08/03 06:16:18;;;;;;;7.05;3.05;;;;;;;18.20;57.51;101523.28;5013878;28;20109;-50
2021/08/03 06:18:44;;;;;;;6.18;2.80;;;;;;;19.28;55.56;101511.66;5013985;28;20390;-47
2021/08/03 06:21:12;;;;;;;4.40;2.40;;;;;;;20.46;50.50;101516.16;5015392;28;20544;-48
2021/08/03 06:23:37;;;;;;;3.60;2.15;;;;;;;21.31;46.79;101510.16;5017606;28;20060;-46
2021/08/03 06:26:03;;;;;;;4.28;2.60;;;;;;;22.35;45.03;101515.75;5008247;28;20603;-47
2021/08/03 06:28:28;;;;;;;5.55;2.40;;;;;;;23.90;42.98;101517.63;5012767;28;20495;-48
2021/08/03 06:30:54;;;;;;;3.72;2.15;;;;;;;24.33;39.83;101501.16;5018244;28;20357;-48
2021/08/03 06:33:21;;;;;;;3.78;2.00;;;;;;;24.38;39.18;101506.31;5013544;28;20037;-49
2021/08/03 06:35:48;;;;;;;4.63;2.13;;;;;;;24.51;39.11;101507.66;5008916;28;20056;-50
2021/08/03 06:38:14;;;;;;;4.55;2.28;;;;;;;24.55;39.55;101502.16;5012640;28;20497;-50
2021/08/03 06:41:04;;;;;;;4.32;2.10;;;;;;;25.21;39.98;101498.00;5014665;28;20051;-48
2021/08/03 06:43:31;;;;;;;7.63;2.45;;;;;;;25.26;39.53;101498.69;5009858;28;20368;-52
2021/08/03 06:46:07;;;;;;;5.40;2.10;;;;;;;25.70;38.34;101501.50;5012696;28;20040;-50
2021/08/03 06:48:40;;;;;;;2.97;1.70;;;;;;;26.02;37.91;101502.88;5023720;28;20111;-48
2021/08/03 06:51:12;;;;;;;8.27;2.00;;;;;;;25.81;37.02;101507.28;5029013;28;20033;-47
2021/08/03 06:53:40;;;;;;;5.60;1.80;;;;;;;24.52;40.62;101510.22;4995630;28;20292;-47
2021/08/03 06:56:06;;;;;;;2.88;1.67;;;;;;;23.83;42.47;101513.41;5011117;28;20504;-51
2021/08/03 06:58:52;;;;;;;2.70;1.58;;;;;;;23.74;42.05;101506.56;5015620;28;20785;-46
2021/08/03 07:01:21;;;;;;;3.45;1.45;;;;;;;24.62;41.15;101506.34;5006965;28;20076;-48
2021/08/03 07:03:47;;;;;;;3.33;1.50;;;;;;;24.25;39.93;101501.41;5024638;28;20561;-49
2021/08/03 07:06:14;;;;;;;5.13;1.33;;;;;;;24.60;39.30;101508.19;5010281;28;20567;-47
2021/08/03 07:08:40;;;;;;;5.60;1.70;;;;;;;24.51;40.83;101500.53;5013582;28;20069;-48
2021/08/03 07:11:07;;;;;;;4.35;1.63;;;;;;;24.87;39.12;101497.47;5010317;28;20373;-52
2021/08/03 07:13:32;;;;;;;4.28;1.60;;;;;;;25.27;38.24;101491.56;5013724;28;20104;-46
2021/08/03 07:15:58;;;;;;;3.00;1.50;;;;;;;25.66;37.11;101500.75;5017345;28;20031;-47
2021/08/03 07:18:24;;;;;;;3.10;1.63;;;;;;;25.56;39.73;101502.00;5012222;28;20035;-47
2021/08/03 07:20:50;;;;;;;3.42;1.50;;;;;;;25.62;38.63;101500.91;5011638;28;20104;-49
2021/08/03 07:23:19;;;;;;;6.25;1.60;;;;;;;25.54;38.25;101501.22;5013378;28;20672;-49
2021/08/03 07:25:45;;;;;;;3.20;1.77;;;;;;;25.08;38.18;101496.72;5013001;28;20029;-49
2021/08/03 07:28:10;;;;;;;4.30;1.60;;;;;;;25.64;37.50;101499.06;5012923;28;20586;-47
2021/08/03 07:30:36;;;;;;;4.70;1.42;;;;;;;25.62;39.40;101500.91;5011299;28;20025;-47
2021/08/03 07:33:01;;;;;;;2.67;1.70;;;;;;;25.88;39.50;101503.44;5015672;28;20059;-49
2021/08/03 07:35:27;;;;;;;2.92;1.25;;;;;;;26.04;38.35;101495.69;4997287;28;20051;-47
2021/08/03 07:37:52;;;;;;;2.67;1.30;;;;;;;26.08;37.74;101497.28;5014863;28;20426;-46
2021/08/03 07:40:17;;;;;;;5.32;1.30;;;;;;;25.51;37.69;101495.09;5015821;28;20033;-47
2021/08/03 07:42:43;;;;;;;5.30;1.70;;;;;;;25.43;39.03;101495.41;5011013;28;20034;-48
2021/08/03 07:45:08;;;;;;;2.38;1.20;;;;;;;25.24;39.38;101489.91;5008259;28;20283;-50
2021/08/03 07:47:34;;;;;;;3.35;1.20;;;;;;;24.59;40.21;101494.91;5008594;28;20033;-48
2021/08/03 07:49:59;;;;;;;4.75;1.30;;;;;;;24.35;40.78;101485.94;5012898;28;20029;-49
2021/08/03 07:52:25;;;;;;;6.00;1.60;;;;;;;24.08;42.23;101502.84;5012513;28;20021;-49
2021/08/03 07:54:50;;;;;;;5.70;1.42;;;;;;;24.60;41.13;101497.53;5013772;28;20146;-46
2021/08/03 07:57:16;;;;;;;5.30;1.70;;;;;;;24.45;44.93;101502.53;5016448;28;20120;-48
2021/08/03 07:59:41;;;;;;;3.53;1.30;;;;;;;24.49;40.57;101496.16;5009569;28;20055;-48
2021/08/03 08:02:07;;;;;;;3.53;1.10;;;;;;;24.55;40.31;101501.28;5006589;28;20396;-51
2021/08/03 08:04:32;;;;;;;3.60;1.30;;;;;;;23.23;43.71;101494.78;5016349;28;20485;-53
2021/08/03 08:06:57;;;;;;;5.13;1.30;;;;;;;22.89;45.10;101493.06;5014609;28;20366;-47
2021/08/03 08:09:23;;;;;;;5.85;1.70;;;;;;;23.26;46.01;101492.03;5016280;28;20449;-49
2021/08/03 08:11:48;;;;;;;5.53;1.50;;;;;;;22.65;45.05;101497.25;5016320;28;20463;-48
2021/08/03 08:14:14;;;;;;;5.15;1.60;;;;;;;21.99;47.15;101497.16;5015741;28;20747;-50
2021/08/03 08:16:39;;;;;;;4.50;1.40;;;;;;;21.89;46.62;101494.75;5014032;28;21067;-48
2021/08/03 08:19:04;;;;;;;9.27;1.70;;;;;;;21.77;46.98;101493.25;5016512;28;20718;-47
2021/08/03 08:21:33;;;;;;;3.40;1.70;;;;;;;21.29;47.50;101487.19;5016460;28;20458;-48
2021/08/03 08:24:02;;;;;;;5.28;1.50;;;;;;;21.17;49.73;101492.75;5010034;28;20041;-49
2021/08/03 08:26:28;;;;;;;3.95;1.60;;;;;;;20.95;51.09;101501.13;5012965;28;20792;-48
2021/08/03 08:28:54;;;;;;;3.65;1.90;;;;;;;20.35;52.98;101500.47;5013486;28;20029;-48
2021/08/03 08:31:19;;;;;;;7.13;2.20;;;;;;;20.07;52.66;101505.28;5012535;28;20025;-52
2021/08/03 08:33:45;;;;;;;4.18;2.28;;;;;;;19.71;53.05;101506.72;5015401;28;21124;-50
2021/08/03 08:36:10;;;;;;;5.15;1.88;;;;;;;19.95;54.83;101508.13;5011758;28;20026;-50
2021/08/03 08:38:36;;;;;;;5.05;2.10;;;;;;;19.74;54.19;101511.09;5014939;28;20029;-48
2021/08/03 08:41:02;;;;;;;6.10;1.98;;;;;;;19.62;55.11;101501.56;4994729;28;20186;-50
2021/08/03 08:43:27;;;;;;;7.03;2.25;;;;;;;19.56;54.72;101506.06;5011746;28;20036;-48
2021/08/03 08:45:56;;;;;;;4.78;2.08;;;;;;;19.52;54.72;101499.91;5006657;28;20021;-48
2021/08/03 08:48:22;;;;;;;4.25;1.85;;;;;;;19.60;54.29;101497.19;5012133;28;20090;-51
2021/08/03 08:50:54;;;;;;;5.03;1.83;;;;;;;19.81;53.83;101494.25;5009243;28;20541;-48
2021/08/03 08:53:24;;;;;;;3.97;1.92;;;;;;;19.93;53.48;101491.41;5015414;28;20382;-49
2021/08/03 08:55:50;;;;;;;5.90;1.92;;;;;;;19.94;53.54;101493.16;5014878;28;20473;-48
2021/08/03 08:58:15;;;;;;;7.45;2.15;;;;;;;19.76;53.33;101498.72;5011403;28;20029;-49
2021/08/03 09:00:40;;;;;;;9.10;2.10;;;;;;;19.92;54.69;101496.72;5013586;28;20029;-49
2021/08/03 09:03:06;;;;;;;5.63;2.22;;;;;;;19.94;55.80;101493.16;5018133;28;20040;-50
2021/08/03 09:05:37;;;;;;;3.88;1.95;;;;;;;20.05;53.44;101491.22;5009820;28;20048;-48
2021/08/03 09:08:04;;;;;;;3.60;1.65;;;;;;;19.95;52.00;101489.59;5014186;28;20139;-50
2021/08/03 09:10:45;;;;;;;5.35;1.60;;;;;;;20.05;51.59;101491.22;5017193;28;20033;-51
2021/08/03 09:13:16;;;;;;;5.25;1.50;;;;;;;20.27;51.58;101491.72;5014517;28;20122;-48
2021/08/03 09:15:46;;;;;;;3.10;1.40;;;;;;;20.65;50.75;101491.97;5012419;28;20033;-49
2021/08/03 09:18:32;;;;;;;2.85;1.40;;;;;;;20.88;51.47;101488.88;5010939;28;20025;-48
2021/08/03 09:20:58;;;;;;;4.38;1.60;;;;;;;20.88;50.86;101496.84;5013833;28;20057;-47
2021/08/03 09:23:50;;;;;;;5.90;1.80;;;;;;;21.29;48.78;101489.84;5013386;28;20079;-48
2021/08/03 09:26:15;;;;;;;5.20;1.55;;;;;;;21.56;47.85;101486.63;5010273;28;20038;-48
2021/08/03 09:29:04;;;;;;;5.25;1.92;;;;;;;21.88;46.34;101488.56;5014360;28;20064;-48
2021/08/03 09:31:34;;;;;;;4.53;1.60;;;;;;;22.17;46.60;101485.22;5012346;28;20065;-47
2021/08/03 09:33:59;;;;;;;3.97;1.55;;;;;;;22.78;49.12;101478.34;5011674;28;20056;-47
2021/08/03 09:37:10;;;;;;;4.15;1.50;;;;;;;22.88;44.38;101472.72;5013513;28;20159;-48
2021/08/03 09:39:37;;;;;;;4.68;1.40;;;;;;;22.97;48.51;101476.91;5010698;28;21044;-49
2021/08/03 09:42:06;;;;;;;4.10;1.40;;;;;;;22.60;44.72;101474.38;5017736;28;20068;-51
2021/08/03 09:44:31;;;;;;;2.33;1.40;;;;;;;22.69;46.57;101479.41;5009794;28;20029;-47
2021/08/03 09:46:57;;;;;;;3.30;1.60;;;;;;;23.35;47.13;101474.03;5012998;28;20036;-49
2021/08/03 09:49:41;;;;;;;5.07;1.60;;;;;;;22.99;45.33;101470.63;5010626;28;20065;-47
2021/08/03 09:52:17;;;;;;;4.00;1.48;;;;;;;22.31;44.15;101471.59;5013917;28;20495;-48
2021/08/03 09:54:43;;;;;;;6.25;1.55;;;;;;;22.41;49.17;101487.25;5010300;28;20029;-49
2021/08/03 09:57:25;;;;;;;3.40;1.45;;;;;;;22.74;48.06;101472.25;5008551;28;20033;-49
2021/08/03 09:59:52;;;;;;;3.97;1.50;;;;;;;22.72;45.28;101474.06;5013482;28;20512;-50
2021/08/03 10:02:25;;;;;;;2.00;1.33;;;;;;;23.14;42.51;101474.63;5019617;28;20037;-48
2021/08/03 10:04:52;;;;;;;6.22;2.10;;;;;;;23.02;42.39;101470.56;5005874;28;20029;-47
2021/08/03 10:07:18;;;;;;;2.13;1.35;;;;;;;23.51;41.69;101465.59;5010788;28;20041;-48
2021/08/03 10:09:44;;;;;;;5.30;1.80;;;;;;;23.41;40.06;101475.63;5012862;28;20529;-51
2021/08/03 10:12:10;;;;;;;5.20;1.70;;;;;;;22.81;42.45;101480.94;5008092;28;20401;-47
2021/08/03 10:14:36;;;;;;;3.92;1.67;;;;;;;22.72;43.75;101475.81;5011602;28;20021;-49
2021/08/03 10:17:01;;;;;;;5.57;1.60;;;;;;;22.97;46.07;101463.63;5011695;28;20430;-49
2021/08/03 10:19:29;;;;;;;3.72;1.98;;;;;;;23.19;43.47;101469.19;5014942;28;20029;-49
2021/08/03 10:22:05;;;;;;;2.50;1.70;;;;;;;23.15;42.47;101465.75;5008783;28;20397;-49
2021/08/03 10:24:33;;;;;;;6.57;2.00;;;;;;;22.90;43.50;101470.03;5016634;28;20029;-53
2021/08/03 10:27:07;;;;;;;5.93;1.88;;;;;;;22.69;45.56;101471.44;5008116;28;20077;-46
2021/08/03 10:29:33;;;;;;;5.68;1.90;;;;;;;22.88;44.51;101477.16;5013032;28;20790;-48
2021/08/03 10:31:59;;;;;;;5.00;1.90;;;;;;;22.53;43.44;101468.34;5014825;28;20056;-48
2021/08/03 10:34:43;;;;;;;5.03;1.83;;;;;;;22.36;45.74;101489.16;5010448;28;20481;-48
2021/08/03 10:37:12;;;;;;;4.25;2.00;;;;;;;21.92;42.96;101481.38;5009459;28;20029;-47
2021/08/03 10:39:55;;;;;;;3.25;1.95;;;;;;;21.69;45.78;101489.88;5007119;28;20025;-48
2021/08/03 10:42:25;;;;;;;5.80;2.20;;;;;;;21.32;49.91;101487.16;5010374;28;20025;-51
2021/08/03 10:44:53;;;;;;;3.33;2.13;;;;;;;21.40;48.75;101479.91;5010929;28;20166;-48
2021/08/03 10:47:30;;;;;;;5.63;2.58;;;;;;;20.72;49.45;101483.91;5014963;28;20107;-49
2021/08/03 10:49:57;;;;;;;5.28;2.20;;;;;;;21.13;51.20;101477.78;5010239;28;20088;-47
2021/08/03 10:52:52;;;;;;;4.53;2.13;;;;;;;20.68;49.20;101488.38;5012390;28;20026;-48
2021/08/03 10:55:39;;;;;;;5.47;2.40;;;;;;;20.38;50.63;101481.84;5008637;28;20116;-46
2021/08/03 10:58:14;;;;;;;5.93;2.60;;;;;;;20.47;50.77;101476.41;5009348;28;20034;-47
2021/08/03 11:00:43;;;;;;;5.43;2.08;;;;;;;20.43;52.00;101479.16;5003514;28;20401;-47
2021/08/03 11:03:35;;;;;;;3.47;2.20;;;;;;;20.10;51.93;101477.91;5027921;28;20124;-51
2021/08/03 11:06:04;;;;;;;5.07;2.35;;;;;;;20.16;51.83;101481.31;5014560;28;20488;-49
2021/08/03 11:08:36;;;;;;;7.13;2.20;;;;;;;20.22;52.73;101475.94;5010952;28;20037;-49
2021/08/03 11:11:10;;;;;;;6.75;2.40;;;;;;;20.18;52.49;101479.53;5012314;28;20038;-48
2021/08/03 11:13:50;;;;;;;4.75;2.50;;;;;;;20.27;53.02;101484.66;5017143;28;20128;-49
2021/08/03 11:16:19;;;;;;;5.78;2.38;;;;;;;20.55;52.87;101476.28;5005804;28;20029;-48
2021/08/03 11:18:47;;;;;;;3.83;2.50;;;;;;;20.61;51.23;101477.03;5015187;28;20319;-48
2021/08/03 11:21:16;;;;;;;4.13;2.35;;;;;;;20.64;50.08;101469.03;5013758;28;20037;-47
2021/08/03 11:24:00;;;;;;;5.93;2.40;;;;;;;20.34;51.86;101472.22;5011429;28;20143;-51
2021/08/03 11:26:28;;;;;;;5.63;2.33;;;;;;;20.44;53.79;101467.63;5011992;28;20077;-51
2021/08/03 11:29:02;;;;;;;3.80;2.20;;;;;;;20.67;52.66;101477.84;5016790;28;20033;-49